Latest Coastal Weather Observations for Wattamolla

IDN60701

Issued at 10:25 am EST Sunday 31 August 2014 (issued every 10 minutes, with the page automatically refreshed every 10 minutes)

About coastal observations | Map of coastal stations | Coastal observations for NSW | Marine services | Other Formats
Station Details ID: 066208 Name: WATTAMOLLA AWS Lat: -34.14 Lon: 151.12 Height: 44.0 m
Data from the previous 72 hours. | See also: Recent months for locations in New South Wales
Date/Time
EST
Temp

°C
Wind Pressure Rain
since 9am
mm
Weather Cloud Vis
km
Sea
Height
m
Swell
Dir
 
Speed
knots
Gust
knots
hPa Trend Height
m
Period
s
Dir
31/10:00am - S 11 14 - - - - - - - - - -
31/09:30am - S 9 14 - - - - - - - - - -
31/09:00am - S 7 10 - - - - - - - - - -
31/08:30am - SSW 7 11 - - - - - - - - - -
31/08:00am - S 6 9 - - - - - - - - - -
31/07:30am - W 6 9 - - - - - - - - - -
31/07:00am - W 7 8 - - - - - - - - - -
31/06:30am - W 6 9 - - - - - - - - - -
31/06:00am - W 6 8 - - - - - - - - - -
31/05:30am - S 10 16 - - - - - - - - - -
31/05:00am - S 13 17 - - - - - - - - - -
31/04:30am - S 13 18 - - - - - - - - - -
31/04:00am - S 12 18 - - - - - - - - - -
31/03:30am - S 19 23 - - - - - - - - - -
31/03:00am - S 18 24 - - - - - - - - - -
31/02:30am - S 20 24 - - - - - - - - - -
31/02:00am - S 19 26 - - - - - - - - - -
31/01:30am - S 20 25 - - - - - - - - - -
31/01:00am - S 19 25 - - - - - - - - - -
31/12:30am - S 15 21 - - - - - - - - - -
31/12:05am - S 17 27 - - - - - - - - - -
31/12:00am - S 20 27 - - - - - - - - - -
 
Date/Time
EST
Temp

°C
Wind Pressure Rain
since 9am
mm
Weather Cloud Vis
km
Sea
Height
m
Swell
Dir
 
Speed
knots
Gust
knots
hPa Trend Height
m
Period
s
Dir
30/11:30pm - S 23 29 - - - - - - - - - -
30/11:00pm - S 23 30 - - - - - - - - - -
30/10:30pm - S 28 34 - - - - - - - - - -
30/10:00pm - S 23 29 - - - - - - - - - -
30/09:30pm - S 24 30 - - - - - - - - - -
30/09:14pm - S 20 32 - - - - - - - - - -
30/09:00pm - S 23 32 - - - - - - - - - -
30/08:30pm - S 26 33 - - - - - - - - - -
30/08:00pm - S 24 31 - - - - - - - - - -
30/07:30pm - S 25 33 - - - - - - - - - -
30/07:05pm - S 18 29 - - - - - - - - - -
30/07:00pm - - - - - - - - - - - - - -
30/06:44pm - S 23 33 - - - - - - - - - -
30/06:30pm - S 26 33 - - - - - - - - - -
30/06:13pm - S 31 35 - - - - - - - - - -
30/06:00pm - S 21 31 - - - - - - - - - -
30/05:37pm - S 26 36 - - - - - - - - - -
30/05:30pm - S 27 34 - - - - - - - - - -
30/05:00pm - S 29 40 - - - - - - - - - -
30/04:30pm - S 27 33 - - - - - - - - - -
30/04:07pm - S 23 34 - - - - - - - - - -
30/04:00pm - S 21 27 - - - - - - - - - -
30/03:30pm - S 23 34 - - - - - - - - - -
30/03:00pm - S 25 35 - - - - - - - - - -
30/02:44pm - S 28 39 - - - - - - - - - -
30/02:30pm - S 25 33 - - - - - - - - - -
30/02:00pm - S 21 31 - - - - - - - - - -
30/01:30pm - S 28 35 - - - - - - - - - -
30/01:08pm - S 25 36 - - - - - - - - - -
30/01:00pm - S 25 33 - - - - - - - - - -
30/12:30pm - S 27 38 - - - - - - - - - -
30/12:00pm - S 27 37 - - - - - - - - - -
30/11:41am - S 33 43 - - - - - - - - - -
30/11:30am - S 31 40 - - - - - - - - - -
30/11:28am - S 30 40 - - - - - - - - - -
30/11:00am - S 34 39 - - - - - - - - - -
30/10:30am - S 34 41 - - - - - - - - - -
30/10:00am - S 35 40 - - - - - - - - - -
30/09:32am - S 33 43 - - - - - - - - - -
30/09:30am - S 32 41 - - - - - - - - - -
30/09:04am - S 32 42 - - - - - - - - - -
30/09:00am - S 33 41 - - - - - - - - - -
30/08:30am - S 34 44 - - - - - - - - - -
30/08:00am - S 31 43 - - - - - - - - - -
30/07:51am - S 31 43 - - - - - - - - - -
30/07:30am - S 33 42 - - - - - - - - - -
30/07:21am - S 32 42 - - - - - - - - - -
30/07:00am - S 33 40 - - - - - - - - - -
30/06:35am - S 32 42 - - - - - - - - - -
30/06:30am - S 34 42 - - - - - - - - - -
30/06:06am - S 30 40 - - - - - - - - - -
30/06:00am - S 31 40 - - - - - - - - - -
30/05:51am - S 31 41 - - - - - - - - - -
30/05:30am - S 35 42 - - - - - - - - - -
30/05:00am - S 39 44 - - - - - - - - - -
30/04:30am - S 38 47 - - - - - - - - - -
30/04:00am - S 40 46 - - - - - - - - - -
30/03:30am - S 39 43 - - - - - - - - - -
30/03:00am - S 41 48 - - - - - - - - - -
30/02:32am - S 35 45 - - - - - - - - - -
30/02:30am - S 34 42 - - - - - - - - - -
30/02:00am - S 36 43 - - - - - - - - - -
30/01:30am - S 32 40 - - - - - - - - - -
30/01:22am - S 34 44 - - - - - - - - - -
30/01:00am - S 38 46 - - - - - - - - - -
30/12:56am - S 39 44 - - - - - - - - - -
30/12:30am - S 27 37 - - - - - - - - - -
30/12:13am - S 21 32 - - - - - - - - - -
30/12:12am - S 20 28 - - - - - - - - - -
30/12:00am - S 30 43 - - - - - - - - - -
 
Date/Time
EST
Temp

°C
Wind Pressure Rain
since 9am
mm
Weather Cloud Vis
km
Sea
Height
m
Swell
Dir
 
Speed
knots
Gust
knots
hPa Trend Height
m
Period
s
Dir
29/11:30pm - S 32 42 - - - - - - - - - -
29/11:00pm - S 28 39 - - - - - - - - - -
29/10:41pm - S 30 40 - - - - - - - - - -
29/10:30pm - S 27 36 - - - - - - - - - -
29/10:00pm - S 25 36 - - - - - - - - - -
29/09:59pm - S 27 32 - - - - - - - - - -
29/09:30pm - S 39 45 - - - - - - - - - -
29/09:00pm - S 37 44 - - - - - - - - - -
29/08:37pm - S 37 47 - - - - - - - - - -
29/08:30pm - S 39 47 - - - - - - - - - -
29/08:00pm - S 37 44 - - - - - - - - - -
29/07:30pm - S 37 46 - - - - - - - - - -
29/07:00pm - S 39 49 - - - - - - - - - -
29/06:58pm - S 39 49 - - - - - - - - - -
29/06:30pm - S 39 46 - - - - - - - - - -
29/06:00pm - S 39 45 - - - - - - - - - -
29/05:30pm - S 34 40 - - - - - - - - - -
29/05:00pm - S 35 42 - - - - - - - - - -
29/04:30pm - S 31 38 - - - - - - - - - -
29/04:00pm - S 28 35 - - - - - - - - - -
29/03:42pm - S 29 39 - - - - - - - - - -
29/03:30pm - S 29 35 - - - - - - - - - -
29/03:00pm - S 29 34 - - - - - - - - - -
29/02:30pm - S 28 34 - - - - - - - - - -
29/02:00pm - S 27 31 - - - - - - - - - -
29/01:30pm - S 25 33 - - - - - - - - - -
29/01:00pm - S 16 26 - - - - - - - - - -
29/12:54pm - S 15 26 - - - - - - - - - -
29/12:30pm - SSW 12 20 - - - - - - - - - -
29/12:08pm - S 18 28 - - - - - - - - - -
29/12:00pm - S 22 28 - - - - - - - - - -
29/11:57am - S 22 32 - - - - - - - - - -
29/11:30am - S 30 39 - - - - - - - - - -
29/11:27am - S 29 39 - - - - - - - - - -
29/11:00am - S 22 27 - - - - - - - - - -
29/10:31am - S 15 25 - - - - - - - - - -
29/10:30am - S 15 20 - - - - - - - - - -
29/10:00am - S 25 31 - - - - - - - - - -
29/09:33am - S 19 29 - - - - - - - - - -
29/09:30am - S 22 30 - - - - - - - - - -
29/09:00am - S 24 32 - - - - - - - - - -
29/08:30am - S 19 26 - - - - - - - - - -
29/08:09am - S 16 27 - - - - - - - - - -
29/08:00am - S 18 25 - - - - - - - - - -
29/07:30am - S 23 29 - - - - - - - - - -
29/07:00am - S 20 29 - - - - - - - - - -
29/06:56am - S 18 29 - - - - - - - - - -
29/06:30am - S 20 27 - - - - - - - - - -
29/06:00am - S 18 29 - - - - - - - - - -
29/05:51am - S 19 29 - - - - - - - - - -
29/05:30am - S 23 28 - - - - - - - - - -
29/05:00am - S 25 28 - - - - - - - - - -
29/04:30am - S 20 27 - - - - - - - - - -
29/04:00am - S 19 22 - - - - - - - - - -
29/03:40am - S 17 27 - - - - - - - - - -
29/03:30am - S 15 22 - - - - - - - - - -
29/03:00am - S 17 26 - - - - - - - - - -
29/02:30am - S 20 25 - - - - - - - - - -
29/02:00am - S 22 26 - - - - - - - - - -
29/01:30am - S 19 24 - - - - - - - - - -
29/01:12am - S 15 25 - - - - - - - - - -
29/01:00am - S 11 19 - - - - - - - - - -
29/12:30am - S 10 20 - - - - - - - - - -
29/12:00am - S 12 20 - - - - - - - - - -
 
Date/Time
EST
Temp

°C
Wind Pressure Rain
since 9am
mm
Weather Cloud Vis
km
Sea
Height
m
Swell
Dir
 
Speed
knots
Gust
knots
hPa Trend Height
m
Period
s
Dir
28/11:49pm - S 15 25 - - - - - - - - - -
28/11:30pm - S 18 22 - - - - - - - - - -
28/11:00pm - S 15 20 - - - - - - - - - -
28/10:30pm - S 11 19 - - - - - - - - - -
28/10:00pm - SSW 9 14 - - - - - - - - - -
28/09:30pm - SW 9 15 - - - - - - - - - -
28/09:00pm - SSE 18 24 - - - - - - - - - -
28/08:30pm - S 17 24 - - - - - - - - - -
28/08:00pm - S 19 24 - - - - - - - - - -
28/07:30pm - SSE 19 26 - - - - - - - - - -
28/07:00pm - SSE 20 25 - - - - - - - - - -
28/06:30pm - S 20 25 - - - - - - - - - -
28/06:00pm - SSE 20 27 - - - - - - - - - -
28/05:30pm - SSE 20 26 - - - - - - - - - -
28/05:00pm - SSE 19 26 - - - - - - - - - -
28/04:30pm - S 19 26 - - - - - - - - - -
28/04:00pm - SSE 20 28 - - - - - - - - - -
28/03:30pm - SSE 21 28 - - - - - - - - - -
28/03:16pm - SSE 20 30 - - - - - - - - - -
28/03:00pm - SSE 22 30 - - - - - - - - - -
28/02:30pm - S 20 29 - - - - - - - - - -
28/02:00pm - S 19 27 - - - - - - - - - -
28/01:30pm - S 22 28 - - - - - - - - - -
28/01:00pm - S 19 27 - - - - - - - - - -
28/12:30pm - S 20 26 - - - - - - - - - -
28/12:00pm - S 24 29 - - - - - - - - - -
28/11:30am - SSE 22 28 - - - - - - - - - -
28/11:00am - S 21 25 - - - - - - - - - -
28/10:30am - SSE 22 28 - - - - - - - - - -

Other Formats:

Comma delimited format used in spreadsheet applications
http://www.bom.gov.au/fwo/IDN60701/IDN60701.95752.axf

JavaScript Object Notation format (JSON) in row-major order
http://www.bom.gov.au/fwo/IDN60701/IDN60701.95752.json